Accueil
METAR-TAF:

METAR-TAF

Aéroports :

Suffolk Executive Airport

Suffolk, Virginie, États-Unis

latitude: 36-40-56N, longitude: 076-36-07W, altitude: 22 m

Observation

Le bulletin a été fait il y a 1 heure et 11 minutes, à 14:55 UTC
Vent calme
Température 5°C
Humidité 70%
Pression 1031 hPa
Visibilité: 16.1 km
Nuages fragmentés à une hauteur de 4900 ft

METAR: KSFQ 141455Z AUTO 00000KT 10SM BKN049 05/00 A3045 RMK AO2 T00460004

Heure: 11:06 (16:06 UTC)


TAF: absent

Observations et prévisions météorologiques de plus de 4000 aéroports (messages METAR et TAF).

Les stations disponibles sont représentées par des disques jaunes et rouges sur la carte.

Passer la souris dessus pour voir le nom de la station.

Cliquer dessus pour voir les observations et prévisions météorologiques.

Pour changer de carte: cliquez sur les boutons verts avec une croix noire pour zoomer, sur le bouton vert avec un tiret pour effectuer un zoom arrière, ou sur les flèches vertes pour les cartes adjacentes.


METAR-TAF: